sensor_id;sensor_type;location;lat;lon;timestamp;temperature;humidity
59961;DHT22;55902;-37.980;-63.602;2023-06-10T00:00:06;6.20;64.10
59961;DHT22;55902;-37.980;-63.602;2023-06-10T00:02:37;6.20;65.70
59961;DHT22;55902;-37.980;-63.602;2023-06-10T00:05:07;6.20;64.10
59961;DHT22;55902;-37.980;-63.602;2023-06-10T00:07:38;6.20;66.00
59961;DHT22;55902;-37.980;-63.602;2023-06-10T00:10:07;6.20;66.50
59961;DHT22;55902;-37.980;-63.602;2023-06-10T00:12:34;6.20;63.40
59961;DHT22;55902;-37.980;-63.602;2023-06-10T00:15:08;6.20;66.10
59961;DHT22;55902;-37.980;-63.602;2023-06-10T00:17:35;6.20;65.00
59961;DHT22;55902;-37.980;-63.602;2023-06-10T00:20:08;6.20;64.30
59961;DHT22;55902;-37.980;-63.602;2023-06-10T00:22:37;6.20;65.80
59961;DHT22;55902;-37.980;-63.602;2023-06-10T00:25:09;6.10;67.40
59961;DHT22;55902;-37.980;-63.602;2023-06-10T00:27:37;6.00;67.90
59961;DHT22;55902;-37.980;-63.602;2023-06-10T00:30:04;5.90;66.90
59961;DHT22;55902;-37.980;-63.602;2023-06-10T00:32:33;5.90;69.20
59961;DHT22;55902;-37.980;-63.602;2023-06-10T00:35:01;5.80;70.50
59961;DHT22;55902;-37.980;-63.602;2023-06-10T00:37:28;5.70;71.70
59961;DHT22;55902;-37.980;-63.602;2023-06-10T00:39:55;5.70;71.50
59961;DHT22;55902;-37.980;-63.602;2023-06-10T00:42:22;5.60;71.30
59961;DHT22;55902;-37.980;-63.602;2023-06-10T00:44:51;5.50;72.50
59961;DHT22;55902;-37.980;-63.602;2023-06-10T00:47:18;5.40;73.40
59961;DHT22;55902;-37.980;-63.602;2023-06-10T00:49:46;5.40;73.10
59961;DHT22;55902;-37.980;-63.602;2023-06-10T00:52:15;5.30;71.30
59961;DHT22;55902;-37.980;-63.602;2023-06-10T00:54:44;5.20;74.20
59961;DHT22;55902;-37.980;-63.602;2023-06-10T00:57:12;5.10;73.90
59961;DHT22;55902;-37.980;-63.602;2023-06-10T00:59:41;5.00;74.70
59961;DHT22;55902;-37.980;-63.602;2023-06-10T01:02:14;4.90;75.60
59961;DHT22;55902;-37.980;-63.602;2023-06-10T01:04:40;4.90;74.10
59961;DHT22;55902;-37.980;-63.602;2023-06-10T01:07:28;4.90;74.00
59961;DHT22;55902;-37.980;-63.602;2023-06-10T01:12:47;4.90;74.30
59961;DHT22;55902;-37.980;-63.602;2023-06-10T01:15:17;4.90;75.10
59961;DHT22;55902;-37.980;-63.602;2023-06-10T01:18:01;4.90;76.10
59961;DHT22;55902;-37.980;-63.602;2023-06-10T01:20:30;4.90;75.80
59961;DHT22;55902;-37.980;-63.602;2023-06-10T01:23:02;4.80;76.70
59961;DHT22;55902;-37.980;-63.602;2023-06-10T01:25:31;4.80;74.90
59961;DHT22;55902;-37.980;-63.602;2023-06-10T01:28:07;4.70;75.20
59961;DHT22;55902;-37.980;-63.602;2023-06-10T01:30:43;4.70;75.10
59961;DHT22;55902;-37.980;-63.602;2023-06-10T01:33:13;4.70;75.10
59961;DHT22;55902;-37.980;-63.602;2023-06-10T01:35:44;4.70;74.80
59961;DHT22;55902;-37.980;-63.602;2023-06-10T01:38:12;4.70;74.10
59961;DHT22;55902;-37.980;-63.602;2023-06-10T01:40:41;4.70;75.20
59961;DHT22;55902;-37.980;-63.602;2023-06-10T01:43:09;4.70;74.60
59961;DHT22;55902;-37.980;-63.602;2023-06-10T01:45:36;4.70;74.20
59961;DHT22;55902;-37.980;-63.602;2023-06-10T01:48:06;4.70;73.50
59961;DHT22;55902;-37.980;-63.602;2023-06-10T01:50:33;4.70;74.60
59961;DHT22;55902;-37.980;-63.602;2023-06-10T01:53:05;4.70;73.90
59961;DHT22;55902;-37.980;-63.602;2023-06-10T01:55:32;4.70;73.10
59961;DHT22;55902;-37.980;-63.602;2023-06-10T01:57:59;4.70;74.80
59961;DHT22;55902;-37.980;-63.602;2023-06-10T02:00:30;4.70;73.90
59961;DHT22;55902;-37.980;-63.602;2023-06-10T02:02:57;4.70;74.30
59961;DHT22;55902;-37.980;-63.602;2023-06-10T02:05:29;4.60;73.20
59961;DHT22;55902;-37.980;-63.602;2023-06-10T02:07:56;4.60;73.70
59961;DHT22;55902;-37.980;-63.602;2023-06-10T02:10:27;4.60;73.30
59961;DHT22;55902;-37.980;-63.602;2023-06-10T02:12:54;4.60;74.10
59961;DHT22;55902;-37.980;-63.602;2023-06-10T02:15:24;4.60;73.60
59961;DHT22;55902;-37.980;-63.602;2023-06-10T02:17:52;4.60;73.70
59961;DHT22;55902;-37.980;-63.602;2023-06-10T02:20:25;4.60;74.00
59961;DHT22;55902;-37.980;-63.602;2023-06-10T02:22:52;4.60;73.90
59961;DHT22;55902;-37.980;-63.602;2023-06-10T02:25:23;4.60;72.90
59961;DHT22;55902;-37.980;-63.602;2023-06-10T02:27:50;4.60;73.50
59961;DHT22;55902;-37.980;-63.602;2023-06-10T02:30:17;4.60;74.90
59961;DHT22;55902;-37.980;-63.602;2023-06-10T02:32:44;4.60;74.50
59961;DHT22;55902;-37.980;-63.602;2023-06-10T02:35:18;4.50;74.80
59961;DHT22;55902;-37.980;-63.602;2023-06-10T02:37:45;4.50;74.20
59961;DHT22;55902;-37.980;-63.602;2023-06-10T02:40:17;4.40;74.70
59961;DHT22;55902;-37.980;-63.602;2023-06-10T02:42:44;4.30;75.10
59961;DHT22;55902;-37.980;-63.602;2023-06-10T02:45:14;4.30;75.00
59961;DHT22;55902;-37.980;-63.602;2023-06-10T02:47:42;4.30;75.00
59961;DHT22;55902;-37.980;-63.602;2023-06-10T02:50:09;4.30;75.60
59961;DHT22;55902;-37.980;-63.602;2023-06-10T02:52:36;4.30;75.00
59961;DHT22;55902;-37.980;-63.602;2023-06-10T02:55:04;4.20;75.70
59961;DHT22;55902;-37.980;-63.602;2023-06-10T02:57:31;4.20;75.90
59961;DHT22;55902;-37.980;-63.602;2023-06-10T02:59:58;4.30;75.30
59961;DHT22;55902;-37.980;-63.602;2023-06-10T03:02:28;4.30;74.90
59961;DHT22;55902;-37.980;-63.602;2023-06-10T03:04:56;4.30;74.40
59961;DHT22;55902;-37.980;-63.602;2023-06-10T03:07:27;4.20;74.30
59961;DHT22;55902;-37.980;-63.602;2023-06-10T03:09:54;4.20;74.80
59961;DHT22;55902;-37.980;-63.602;2023-06-10T03:12:21;4.10;74.30
59961;DHT22;55902;-37.980;-63.602;2023-06-10T03:14:48;4.10;75.40
59961;DHT22;55902;-37.980;-63.602;2023-06-10T03:17:19;4.00;75.90
59961;DHT22;55902;-37.980;-63.602;2023-06-10T03:19:46;4.00;74.80
59961;DHT22;55902;-37.980;-63.602;2023-06-10T03:22:17;4.00;74.70
59961;DHT22;55902;-37.980;-63.602;2023-06-10T03:24:44;4.00;75.40
59961;DHT22;55902;-37.980;-63.602;2023-06-10T03:27:13;4.00;74.90
59961;DHT22;55902;-37.980;-63.602;2023-06-10T03:29:41;3.90;75.50
59961;DHT22;55902;-37.980;-63.602;2023-06-10T03:32:12;3.90;75.10
59961;DHT22;55902;-37.980;-63.602;2023-06-10T03:34:40;3.90;74.60
59961;DHT22;55902;-37.980;-63.602;2023-06-10T03:37:11;3.90;75.70
59961;DHT22;55902;-37.980;-63.602;2023-06-10T03:39:38;3.90;75.30
59961;DHT22;55902;-37.980;-63.602;2023-06-10T03:42:06;3.90;74.90
59961;DHT22;55902;-37.980;-63.602;2023-06-10T03:44:33;3.90;75.70
59961;DHT22;55902;-37.980;-63.602;2023-06-10T03:47:00;3.80;75.50
59961;DHT22;55902;-37.980;-63.602;2023-06-10T03:49:31;3.80;74.80
59961;DHT22;55902;-37.980;-63.602;2023-06-10T03:51:59;3.80;74.00
59961;DHT22;55902;-37.980;-63.602;2023-06-10T03:54:30;3.80;74.30
59961;DHT22;55902;-37.980;-63.602;2023-06-10T03:56:58;3.70;74.40
59961;DHT22;55902;-37.980;-63.602;2023-06-10T03:59:28;3.70;75.00
59961;DHT22;55902;-37.980;-63.602;2023-06-10T04:01:55;3.70;74.50
59961;DHT22;55902;-37.980;-63.602;2023-06-10T04:04:23;3.60;75.30
59961;DHT22;55902;-37.980;-63.602;2023-06-10T04:06:50;3.60;75.60
59961;DHT22;55902;-37.980;-63.602;2023-06-10T04:09:20;3.60;75.10
59961;DHT22;55902;-37.980;-63.602;2023-06-10T04:11:47;3.60;75.20
59961;DHT22;55902;-37.980;-63.602;2023-06-10T04:14:17;3.60;74.40
59961;DHT22;55902;-37.980;-63.602;2023-06-10T04:16:44;3.60;74.70
59961;DHT22;55902;-37.980;-63.602;2023-06-10T04:19:15;3.60;76.00
59961;DHT22;55902;-37.980;-63.602;2023-06-10T04:21:43;3.70;75.30
59961;DHT22;55902;-37.980;-63.602;2023-06-10T04:24:14;3.70;75.00
59961;DHT22;55902;-37.980;-63.602;2023-06-10T04:26:41;3.70;74.40
59961;DHT22;55902;-37.980;-63.602;2023-06-10T04:29:08;3.70;74.40
59961;DHT22;55902;-37.980;-63.602;2023-06-10T04:31:35;3.70;74.20
59961;DHT22;55902;-37.980;-63.602;2023-06-10T04:34:02;3.70;75.20
59961;DHT22;55902;-37.980;-63.602;2023-06-10T04:36:29;3.60;74.30
59961;DHT22;55902;-37.980;-63.602;2023-06-10T04:38:59;3.60;76.20
59961;DHT22;55902;-37.980;-63.602;2023-06-10T04:41:26;3.60;75.70
59961;DHT22;55902;-37.980;-63.602;2023-06-10T04:43:57;3.60;75.70
59961;DHT22;55902;-37.980;-63.602;2023-06-10T04:46:26;3.60;75.40
59961;DHT22;55902;-37.980;-63.602;2023-06-10T04:48:58;3.60;75.10
59961;DHT22;55902;-37.980;-63.602;2023-06-10T04:51:25;3.60;75.40
59961;DHT22;55902;-37.980;-63.602;2023-06-10T04:53:56;3.60;74.00
59961;DHT22;55902;-37.980;-63.602;2023-06-10T04:56:23;3.70;75.60
59961;DHT22;55902;-37.980;-63.602;2023-06-10T04:58:54;3.70;74.60
59961;DHT22;55902;-37.980;-63.602;2023-06-10T05:01:21;3.70;74.70
59961;DHT22;55902;-37.980;-63.602;2023-06-10T05:03:52;3.70;74.40
59961;DHT22;55902;-37.980;-63.602;2023-06-10T05:06:19;3.70;73.60
59961;DHT22;55902;-37.980;-63.602;2023-06-10T05:08:50;3.70;73.70
59961;DHT22;55902;-37.980;-63.602;2023-06-10T05:11:17;3.70;74.70
59961;DHT22;55902;-37.980;-63.602;2023-06-10T05:13:49;3.60;74.50
59961;DHT22;55902;-37.980;-63.602;2023-06-10T05:16:16;3.60;73.40
59961;DHT22;55902;-37.980;-63.602;2023-06-10T05:18:46;3.50;74.30
59961;DHT22;55902;-37.980;-63.602;2023-06-10T05:21:13;3.50;73.10
59961;DHT22;55902;-37.980;-63.602;2023-06-10T05:23:44;3.40;74.20
59961;DHT22;55902;-37.980;-63.602;2023-06-10T05:26:11;3.30;74.50
59961;DHT22;55902;-37.980;-63.602;2023-06-10T05:28:43;3.30;74.60
59961;DHT22;55902;-37.980;-63.602;2023-06-10T05:31:10;3.20;73.80
59961;DHT22;55902;-37.980;-63.602;2023-06-10T05:33:40;3.20;74.40
59961;DHT22;55902;-37.980;-63.602;2023-06-10T05:36:07;3.20;74.20
59961;DHT22;55902;-37.980;-63.602;2023-06-10T05:38:37;3.10;74.30
59961;DHT22;55902;-37.980;-63.602;2023-06-10T05:41:04;3.00;75.30
59961;DHT22;55902;-37.980;-63.602;2023-06-10T05:43:36;3.00;75.50
59961;DHT22;55902;-37.980;-63.602;2023-06-10T05:46:02;2.90;75.60
59961;DHT22;55902;-37.980;-63.602;2023-06-10T05:48:34;2.80;74.90
59961;DHT22;55902;-37.980;-63.602;2023-06-10T05:51:01;2.80;76.40
59961;DHT22;55902;-37.980;-63.602;2023-06-10T05:53:32;2.70;76.50
59961;DHT22;55902;-37.980;-63.602;2023-06-10T05:55:59;2.70;76.50
59961;DHT22;55902;-37.980;-63.602;2023-06-10T05:58:26;2.60;76.80
59961;DHT22;55902;-37.980;-63.602;2023-06-10T06:00:53;2.60;77.50
59961;DHT22;55902;-37.980;-63.602;2023-06-10T06:03:24;2.50;77.50
59961;DHT22;55902;-37.980;-63.602;2023-06-10T06:05:51;2.50;77.60
59961;DHT22;55902;-37.980;-63.602;2023-06-10T06:08:22;2.60;76.90
59961;DHT22;55902;-37.980;-63.602;2023-06-10T06:10:50;2.70;77.20
59961;DHT22;55902;-37.980;-63.602;2023-06-10T06:13:20;2.70;77.60
59961;DHT22;55902;-37.980;-63.602;2023-06-10T06:15:48;2.80;77.40
59961;DHT22;55902;-37.980;-63.602;2023-06-10T06:18:20;2.80;76.60
59961;DHT22;55902;-37.980;-63.602;2023-06-10T06:20:47;2.90;77.30
59961;DHT22;55902;-37.980;-63.602;2023-06-10T06:23:18;3.00;76.30
59961;DHT22;55902;-37.980;-63.602;2023-06-10T06:25:45;3.00;76.20
59961;DHT22;55902;-37.980;-63.602;2023-06-10T06:28:12;3.00;75.70
59961;DHT22;55902;-37.980;-63.602;2023-06-10T06:30:39;3.00;76.10
59961;DHT22;55902;-37.980;-63.602;2023-06-10T06:33:09;2.90;76.00
59961;DHT22;55902;-37.980;-63.602;2023-06-10T06:35:36;3.00;76.00
59961;DHT22;55902;-37.980;-63.602;2023-06-10T06:38:07;3.00;75.90
59961;DHT22;55902;-37.980;-63.602;2023-06-10T06:40:34;2.90;76.50
59961;DHT22;55902;-37.980;-63.602;2023-06-10T06:43:05;2.90;77.40
59961;DHT22;55902;-37.980;-63.602;2023-06-10T06:45:32;3.00;77.50
59961;DHT22;55902;-37.980;-63.602;2023-06-10T06:48:00;2.90;77.70
59961;DHT22;55902;-37.980;-63.602;2023-06-10T06:50:27;2.90;77.20
59961;DHT22;55902;-37.980;-63.602;2023-06-10T06:52:58;3.00;76.80
59961;DHT22;55902;-37.980;-63.602;2023-06-10T06:55:25;3.00;76.70
59961;DHT22;55902;-37.980;-63.602;2023-06-10T06:57:55;3.00;76.70
59961;DHT22;55902;-37.980;-63.602;2023-06-10T07:00:22;3.00;77.30
59961;DHT22;55902;-37.980;-63.602;2023-06-10T07:02:53;3.00;77.10
59961;DHT22;55902;-37.980;-63.602;2023-06-10T07:05:20;3.00;76.70
59961;DHT22;55902;-37.980;-63.602;2023-06-10T07:07:51;3.10;76.40
59961;DHT22;55902;-37.980;-63.602;2023-06-10T07:10:25;3.10;76.80
59961;DHT22;55902;-37.980;-63.602;2023-06-10T07:12:52;3.10;76.40
59961;DHT22;55902;-37.980;-63.602;2023-06-10T07:15:19;3.00;77.90
59961;DHT22;55902;-37.980;-63.602;2023-06-10T07:17:50;3.10;77.10
59961;DHT22;55902;-37.980;-63.602;2023-06-10T07:20:17;3.10;76.50
59961;DHT22;55902;-37.980;-63.602;2023-06-10T07:22:49;3.10;77.90
59961;DHT22;55902;-37.980;-63.602;2023-06-10T07:25:16;3.20;77.70
59961;DHT22;55902;-37.980;-63.602;2023-06-10T07:27:43;3.20;77.20
59961;DHT22;55902;-37.980;-63.602;2023-06-10T07:30:10;3.30;77.30
59961;DHT22;55902;-37.980;-63.602;2023-06-10T07:32:40;3.30;76.80
59961;DHT22;55902;-37.980;-63.602;2023-06-10T07:35:09;3.30;77.20
59961;DHT22;55902;-37.980;-63.602;2023-06-10T07:37:43;3.30;78.00
59961;DHT22;55902;-37.980;-63.602;2023-06-10T07:40:10;3.30;77.30
59961;DHT22;55902;-37.980;-63.602;2023-06-10T07:42:37;3.30;77.30
59961;DHT22;55902;-37.980;-63.602;2023-06-10T07:45:05;3.30;77.50
59961;DHT22;55902;-37.980;-63.602;2023-06-10T07:47:36;3.30;77.30
59961;DHT22;55902;-37.980;-63.602;2023-06-10T07:50:03;3.30;77.50
59961;DHT22;55902;-37.980;-63.602;2023-06-10T07:52:33;3.30;77.90
59961;DHT22;55902;-37.980;-63.602;2023-06-10T07:55:00;3.30;78.40
59961;DHT22;55902;-37.980;-63.602;2023-06-10T07:57:27;3.30;78.10
59961;DHT22;55902;-37.980;-63.602;2023-06-10T07:59:55;3.30;78.00
59961;DHT22;55902;-37.980;-63.602;2023-06-10T08:02:28;3.30;78.10
59961;DHT22;55902;-37.980;-63.602;2023-06-10T08:04:55;3.30;77.80
59961;DHT22;55902;-37.980;-63.602;2023-06-10T08:07:27;3.40;77.80
59961;DHT22;55902;-37.980;-63.602;2023-06-10T08:09:54;3.30;78.30
59961;DHT22;55902;-37.980;-63.602;2023-06-10T08:12:21;3.30;77.80
59961;DHT22;55902;-37.980;-63.602;2023-06-10T08:14:48;3.40;78.40
59961;DHT22;55902;-37.980;-63.602;2023-06-10T08:17:18;3.30;78.80
59961;DHT22;55902;-37.980;-63.602;2023-06-10T08:19:44;3.30;77.60
59961;DHT22;55902;-37.980;-63.602;2023-06-10T08:22:12;3.30;77.60
59961;DHT22;55902;-37.980;-63.602;2023-06-10T08:24:42;3.30;77.60
59961;DHT22;55902;-37.980;-63.602;2023-06-10T08:27:09;3.30;78.30
59961;DHT22;55902;-37.980;-63.602;2023-06-10T08:29:36;3.30;78.20
59961;DHT22;55902;-37.980;-63.602;2023-06-10T08:32:04;3.30;78.20
59961;DHT22;55902;-37.980;-63.602;2023-06-10T08:34:38;3.30;78.30
59961;DHT22;55902;-37.980;-63.602;2023-06-10T08:37:05;3.30;77.40
59961;DHT22;55902;-37.980;-63.602;2023-06-10T08:39:36;3.30;77.70
59961;DHT22;55902;-37.980;-63.602;2023-06-10T08:42:23;3.30;78.60
59961;DHT22;55902;-37.980;-63.602;2023-06-10T08:44:56;3.30;79.10
59961;DHT22;55902;-37.980;-63.602;2023-06-10T08:47:24;3.20;78.70
59961;DHT22;55902;-37.980;-63.602;2023-06-10T08:49:52;3.30;78.80
59961;DHT22;55902;-37.980;-63.602;2023-06-10T08:52:21;3.20;78.40
59961;DHT22;55902;-37.980;-63.602;2023-06-10T08:55:02;3.30;78.80
59961;DHT22;55902;-37.980;-63.602;2023-06-10T08:57:30;3.30;79.50
59961;DHT22;55902;-37.980;-63.602;2023-06-10T08:59:58;3.30;80.20
59961;DHT22;55902;-37.980;-63.602;2023-06-10T09:02:25;3.40;79.20
59961;DHT22;55902;-37.980;-63.602;2023-06-10T09:04:57;3.40;80.10
59961;DHT22;55902;-37.980;-63.602;2023-06-10T09:07:25;3.50;80.40
59961;DHT22;55902;-37.980;-63.602;2023-06-10T09:09:56;3.60;80.60
59961;DHT22;55902;-37.980;-63.602;2023-06-10T09:12:24;3.70;80.70
59961;DHT22;55902;-37.980;-63.602;2023-06-10T09:14:56;3.80;80.40
59961;DHT22;55902;-37.980;-63.602;2023-06-10T09:17:23;3.90;79.50
59961;DHT22;55902;-37.980;-63.602;2023-06-10T09:19:54;3.90;80.50
59961;DHT22;55902;-37.980;-63.602;2023-06-10T09:22:23;4.00;80.30
59961;DHT22;55902;-37.980;-63.602;2023-06-10T09:25:09;4.00;80.40
59961;DHT22;55902;-37.980;-63.602;2023-06-10T09:27:51;4.00;80.50
59961;DHT22;55902;-37.980;-63.602;2023-06-10T09:32:58;4.10;81.90
59961;DHT22;55902;-37.980;-63.602;2023-06-10T09:35:30;4.20;82.80
59961;DHT22;55902;-37.980;-63.602;2023-06-10T09:37:59;4.40;84.20
59961;DHT22;55902;-37.980;-63.602;2023-06-10T09:40:27;4.60;83.90
59961;DHT22;55902;-37.980;-63.602;2023-06-10T09:43:00;4.90;83.20
59961;DHT22;55902;-37.980;-63.602;2023-06-10T09:45:31;5.10;82.40
59961;DHT22;55902;-37.980;-63.602;2023-06-10T09:47:58;5.30;81.80
59961;DHT22;55902;-37.980;-63.602;2023-06-10T09:50:26;5.50;81.20
59961;DHT22;55902;-37.980;-63.602;2023-06-10T09:52:54;5.70;80.90
59961;DHT22;55902;-37.980;-63.602;2023-06-10T09:55:21;5.90;80.20
59961;DHT22;55902;-37.980;-63.602;2023-06-10T09:57:52;6.00;80.20
59961;DHT22;55902;-37.980;-63.602;2023-06-10T10:00:23;6.10;79.80
59961;DHT22;55902;-37.980;-63.602;2023-06-10T10:02:53;6.20;79.00
59961;DHT22;55902;-37.980;-63.602;2023-06-10T10:05:24;6.30;78.90
59961;DHT22;55902;-37.980;-63.602;2023-06-10T10:07:52;6.40;79.50
59961;DHT22;55902;-37.980;-63.602;2023-06-10T10:10:20;6.50;78.40
59961;DHT22;55902;-37.980;-63.602;2023-06-10T10:12:48;6.50;77.70
59961;DHT22;55902;-37.980;-63.602;2023-06-10T10:15:21;6.60;77.80
59961;DHT22;55902;-37.980;-63.602;2023-06-10T10:17:53;6.60;77.30
59961;DHT22;55902;-37.980;-63.602;2023-06-10T10:20:26;6.50;77.60
59961;DHT22;55902;-37.980;-63.602;2023-06-10T10:22:56;6.50;78.30
59961;DHT22;55902;-37.980;-63.602;2023-06-10T10:25:28;6.50;77.40
59961;DHT22;55902;-37.980;-63.602;2023-06-10T10:28:12;6.40;77.70
59961;DHT22;55902;-37.980;-63.602;2023-06-10T10:30:52;6.30;77.90
59961;DHT22;55902;-37.980;-63.602;2023-06-10T10:36:11;6.20;78.30
59961;DHT22;55902;-37.980;-63.602;2023-06-10T10:38:38;6.20;78.60
59961;DHT22;55902;-37.980;-63.602;2023-06-10T10:41:09;6.10;78.70
59961;DHT22;55902;-37.980;-63.602;2023-06-10T10:43:36;6.10;78.90
59961;DHT22;55902;-37.980;-63.602;2023-06-10T10:46:12;6.10;78.90
59961;DHT22;55902;-37.980;-63.602;2023-06-10T10:48:40;6.10;79.40
59961;DHT22;55902;-37.980;-63.602;2023-06-10T10:51:08;6.10;78.50
59961;DHT22;55902;-37.980;-63.602;2023-06-10T10:53:38;6.00;79.00
59961;DHT22;55902;-37.980;-63.602;2023-06-10T10:56:15;6.00;79.30
59961;DHT22;55902;-37.980;-63.602;2023-06-10T10:59:17;5.90;79.70
59961;DHT22;55902;-37.980;-63.602;2023-06-10T11:01:46;5.90;80.30
59961;DHT22;55902;-37.980;-63.602;2023-06-10T11:04:18;5.90;80.60
59961;DHT22;55902;-37.980;-63.602;2023-06-10T11:06:54;5.80;80.80
59961;DHT22;55902;-37.980;-63.602;2023-06-10T11:09:29;5.80;80.90
59961;DHT22;55902;-37.980;-63.602;2023-06-10T11:11:59;5.80;80.60
59961;DHT22;55902;-37.980;-63.602;2023-06-10T11:14:30;5.70;80.70
59961;DHT22;55902;-37.980;-63.602;2023-06-10T11:16:59;5.70;80.80
59961;DHT22;55902;-37.980;-63.602;2023-06-10T11:19:36;5.60;81.60
59961;DHT22;55902;-37.980;-63.602;2023-06-10T11:22:08;5.60;81.40
59961;DHT22;55902;-37.980;-63.602;2023-06-10T11:24:36;5.50;81.90
59961;DHT22;55902;-37.980;-63.602;2023-06-10T11:27:17;5.40;81.90
59961;DHT22;55902;-37.980;-63.602;2023-06-10T11:32:33;5.30;83.30
59961;DHT22;55902;-37.980;-63.602;2023-06-10T11:35:04;5.20;83.10
59961;DHT22;55902;-37.980;-63.602;2023-06-10T11:37:31;5.20;83.70
59961;DHT22;55902;-37.980;-63.602;2023-06-10T11:39:59;5.10;83.80
59961;DHT22;55902;-37.980;-63.602;2023-06-10T11:42:26;5.10;84.00
59961;DHT22;55902;-37.980;-63.602;2023-06-10T11:44:58;5.10;84.10
59961;DHT22;55902;-37.980;-63.602;2023-06-10T11:47:28;5.10;83.70
59961;DHT22;55902;-37.980;-63.602;2023-06-10T11:50:00;5.10;84.50
59961;DHT22;55902;-37.980;-63.602;2023-06-10T11:52:30;5.10;84.60
59961;DHT22;55902;-37.980;-63.602;2023-06-10T11:55:05;5.10;83.60
59961;DHT22;55902;-37.980;-63.602;2023-06-10T11:57:34;5.10;84.20
59961;DHT22;55902;-37.980;-63.602;2023-06-10T12:00:06;5.10;83.80
59961;DHT22;55902;-37.980;-63.602;2023-06-10T12:02:33;5.10;84.40
59961;DHT22;55902;-37.980;-63.602;2023-06-10T12:05:13;5.10;85.10
59961;DHT22;55902;-37.980;-63.602;2023-06-10T12:07:40;5.10;83.90
59961;DHT22;55902;-37.980;-63.602;2023-06-10T12:10:11;5.10;85.00
59961;DHT22;55902;-37.980;-63.602;2023-06-10T12:12:38;5.10;85.20
59961;DHT22;55902;-37.980;-63.602;2023-06-10T12:15:11;5.10;86.00
59961;DHT22;55902;-37.980;-63.602;2023-06-10T12:17:50;5.10;86.00
59961;DHT22;55902;-37.980;-63.602;2023-06-10T12:20:29;5.20;85.60
59961;DHT22;55902;-37.980;-63.602;2023-06-10T12:22:56;5.30;85.40
59961;DHT22;55902;-37.980;-63.602;2023-06-10T12:25:28;5.30;86.40
59961;DHT22;55902;-37.980;-63.602;2023-06-10T12:27:56;5.40;86.90
59961;DHT22;55902;-37.980;-63.602;2023-06-10T12:30:28;5.50;86.00
59961;DHT22;55902;-37.980;-63.602;2023-06-10T12:32:56;5.50;86.40
59961;DHT22;55902;-37.980;-63.602;2023-06-10T12:35:25;5.60;85.40
59961;DHT22;55902;-37.980;-63.602;2023-06-10T12:38:03;5.60;86.70
59961;DHT22;55902;-37.980;-63.602;2023-06-10T12:40:40;5.70;85.90
59961;DHT22;55902;-37.980;-63.602;2023-06-10T12:43:07;5.80;84.90
59961;DHT22;55902;-37.980;-63.602;2023-06-10T12:45:39;5.90;85.20
59961;DHT22;55902;-37.980;-63.602;2023-06-10T12:48:10;5.90;85.50
59961;DHT22;55902;-37.980;-63.602;2023-06-10T12:50:42;6.00;85.70
59961;DHT22;55902;-37.980;-63.602;2023-06-10T12:53:11;6.00;85.90
59961;DHT22;55902;-37.980;-63.602;2023-06-10T12:55:38;6.10;85.40
59961;DHT22;55902;-37.980;-63.602;2023-06-10T12:58:06;6.20;85.40
59961;DHT22;55902;-37.980;-63.602;2023-06-10T13:00:33;6.20;85.60
59961;DHT22;55902;-37.980;-63.602;2023-06-10T13:03:06;6.30;85.10
59961;DHT22;55902;-37.980;-63.602;2023-06-10T13:05:34;6.60;84.90
59961;DHT22;55902;-37.980;-63.602;2023-06-10T13:08:09;7.10;83.80
59961;DHT22;55902;-37.980;-63.602;2023-06-10T13:10:39;7.80;82.40
59961;DHT22;55902;-37.980;-63.602;2023-06-10T13:13:06;8.40;81.10
59961;DHT22;55902;-37.980;-63.602;2023-06-10T13:15:34;9.00;79.40
59961;DHT22;55902;-37.980;-63.602;2023-06-10T13:18:07;9.50;77.20
59961;DHT22;55902;-37.980;-63.602;2023-06-10T13:20:34;10.00;74.90
59961;DHT22;55902;-37.980;-63.602;2023-06-10T13:23:02;10.30;74.50
59961;DHT22;55902;-37.980;-63.602;2023-06-10T13:25:29;10.70;73.40
59961;DHT22;55902;-37.980;-63.602;2023-06-10T13:27:56;11.00;72.00
59961;DHT22;55902;-37.980;-63.602;2023-06-10T13:30:23;11.20;70.70
59961;DHT22;55902;-37.980;-63.602;2023-06-10T13:32:55;11.30;69.80
59961;DHT22;55902;-37.980;-63.602;2023-06-10T13:35:23;11.50;70.50
59961;DHT22;55902;-37.980;-63.602;2023-06-10T13:37:52;11.80;69.80
59961;DHT22;55902;-37.980;-63.602;2023-06-10T13:40:19;12.00;68.70
59961;DHT22;55902;-37.980;-63.602;2023-06-10T13:42:50;12.20;68.30
59961;DHT22;55902;-37.980;-63.602;2023-06-10T13:45:18;12.40;66.60
59961;DHT22;55902;-37.980;-63.602;2023-06-10T13:47:49;12.60;65.60
59961;DHT22;55902;-37.980;-63.602;2023-06-10T13:50:17;12.70;66.50
59961;DHT22;55902;-37.980;-63.602;2023-06-10T13:52:44;12.90;65.20
59961;DHT22;55902;-37.980;-63.602;2023-06-10T13:55:11;13.10;64.80
59961;DHT22;55902;-37.980;-63.602;2023-06-10T13:57:41;13.30;64.20
59961;DHT22;55902;-37.980;-63.602;2023-06-10T14:00:08;13.60;64.20
59961;DHT22;55902;-37.980;-63.602;2023-06-10T14:02:36;13.80;62.60
59961;DHT22;55902;-37.980;-63.602;2023-06-10T14:05:03;14.00;61.20
59961;DHT22;55902;-37.980;-63.602;2023-06-10T14:07:31;14.20;61.10
59961;DHT22;55902;-37.980;-63.602;2023-06-10T14:09:58;14.40;60.50
59961;DHT22;55902;-37.980;-63.602;2023-06-10T14:12:25;14.70;61.30
59961;DHT22;55902;-37.980;-63.602;2023-06-10T14:14:57;14.90;60.10
59961;DHT22;55902;-37.980;-63.602;2023-06-10T14:17:24;15.00;58.70
59961;DHT22;55902;-37.980;-63.602;2023-06-10T14:19:55;15.20;59.30
59961;DHT22;55902;-37.980;-63.602;2023-06-10T14:22:22;15.40;57.50
59961;DHT22;55902;-37.980;-63.602;2023-06-10T14:24:49;15.60;58.10
59961;DHT22;55902;-37.980;-63.602;2023-06-10T14:27:16;15.80;58.30
59961;DHT22;55902;-37.980;-63.602;2023-06-10T14:29:43;16.10;58.10
59961;DHT22;55902;-37.980;-63.602;2023-06-10T14:32:10;16.30;56.90
59961;DHT22;55902;-37.980;-63.602;2023-06-10T14:34:40;16.50;56.50
59961;DHT22;55902;-37.980;-63.602;2023-06-10T14:37:08;16.80;56.40
59961;DHT22;55902;-37.980;-63.602;2023-06-10T14:39:38;17.00;55.10
59961;DHT22;55902;-37.980;-63.602;2023-06-10T14:42:05;17.20;54.40
59961;DHT22;55902;-37.980;-63.602;2023-06-10T14:44:36;17.20;54.70
59961;DHT22;55902;-37.980;-63.602;2023-06-10T14:47:04;17.30;54.30
59961;DHT22;55902;-37.980;-63.602;2023-06-10T14:49:34;17.40;54.00
59961;DHT22;55902;-37.980;-63.602;2023-06-10T14:52:01;17.60;54.20
59961;DHT22;55902;-37.980;-63.602;2023-06-10T14:54:31;17.70;53.80
59961;DHT22;55902;-37.980;-63.602;2023-06-10T14:56:58;17.80;53.90
59961;DHT22;55902;-37.980;-63.602;2023-06-10T14:59:28;18.00;52.80
59961;DHT22;55902;-37.980;-63.602;2023-06-10T15:01:55;18.00;51.20
59961;DHT22;55902;-37.980;-63.602;2023-06-10T15:04:28;18.10;53.90
59961;DHT22;55902;-37.980;-63.602;2023-06-10T15:06:55;18.30;53.10
59961;DHT22;55902;-37.980;-63.602;2023-06-10T15:09:26;18.40;51.00
59961;DHT22;55902;-37.980;-63.602;2023-06-10T15:11:53;18.40;52.10
59961;DHT22;55902;-37.980;-63.602;2023-06-10T15:14:20;18.40;51.40
59961;DHT22;55902;-37.980;-63.602;2023-06-10T15:16:51;18.50;51.10
59961;DHT22;55902;-37.980;-63.602;2023-06-10T15:19:18;18.60;51.90
59961;DHT22;55902;-37.980;-63.602;2023-06-10T15:21:49;18.80;50.80
59961;DHT22;55902;-37.980;-63.602;2023-06-10T15:24:16;18.80;50.60